Latest Weather Observations for Central Arnhem Plateau

IDD60801

Issued at 7:31 am CST Friday 23 June 2017 (issued every 30 minutes, with the page automatically refreshed every 10 minutes)

About weather observations | Map of weather stations | Latest weather observations for NT | Other Formats
Station Details ID: 014909 Name: CENTRAL ARNHEM PLATEAU Lat: -13.33 Lon: 133.09 Height: 416.0 m
Data from the previous 72 hours. | See also: Recent months at Central Arnhem Plateau
Date/Time
CST
Temp
°C
App
Temp
°C
Dew
Point
°C
Rel
Hum
%
Delta-T
°C
Wind Press
QNH
hPa
Press
MSL
hPa
Rain since
9am
mm
Dir  Spd
km/h
Gust
km/h
Spd
kts
Gust
kts
23/07:30am 19.2 19.2 16.2 83 1.8 ESE 11 15 6 8 1016.7 1014.7 0.0
23/07:00am 18.8 18.8 16.2 85 1.6 ESE 11 15 6 8 1016.5 1014.5 0.0
23/06:30am 19.0 18.6 16.2 84 1.7 ESE 13 17 7 9 1016.2 1014.3 0.0
23/06:00am 19.2 18.8 16.2 83 1.8 ESE 13 17 7 9 1016.2 1014.3 0.0
23/05:30am 19.6 18.6 16.6 83 1.8 E 17 24 9 13 1016.0 1014.1 0.0
23/05:00am 19.3 18.6 16.5 84 1.7 E 15 20 8 11 1016.0 1014.1 0.0
23/04:30am 19.1 18.7 16.1 83 1.8 ESE 13 19 7 10 1016.0 1014.1 0.0
23/04:00am 19.3 18.8 16.0 81 2.0 ESE 13 17 7 9 1016.1 1014.2 0.0
23/03:30am 19.5 19.4 16.0 80 2.1 ESE 11 15 6 8 1016.3 1014.4 0.0
23/03:00am 19.7 19.2 16.0 79 2.2 ESE 13 15 7 8 1016.3 1014.4 0.0
23/02:30am 20.0 19.5 15.8 77 2.5 ESE 13 15 7 8 1016.5 1014.5 0.0
23/02:00am 20.1 19.4 15.5 75 2.8 ESE 13 15 7 8 1016.8 1014.8 0.0
23/01:30am 20.4 19.7 15.4 73 3.0 ESE 13 17 7 9 1017.0 1015.0 0.0
23/01:00am 20.7 20.0 15.5 72 3.1 ESE 13 15 7 8 1017.2 1015.2 0.0
23/12:30am 21.3 20.2 15.4 69 3.6 ESE 15 20 8 11 1017.3 1015.3 0.0
23/12:00am 21.3 21.3 15.2 68 3.7 ESE 9 11 5 6 1017.3 1015.3 0.0
 
Date/Time
CST
Temp
°C
App
Temp
°C
Dew
Point
°C
Rel
Hum
%
Delta-T
°C
Wind Press
QNH
hPa
Press
MSL
hPa
Rain since
9am
mm
Dir  Spd
km/h
Gust
km/h
Spd
kts
Gust
kts
22/11:30pm 21.7 21.7 15.1 66 4.0 ESE 9 11 5 6 1017.3 1015.3 0.0
22/11:00pm 21.8 21.6 14.7 64 4.3 ESE 9 11 5 6 1017.4 1015.4 0.0
22/10:30pm 22.2 22.0 14.6 62 4.6 ESE 9 11 5 6 1017.5 1015.5 0.0
22/10:00pm 22.5 22.2 14.4 60 4.8 ESE 9 11 5 6 1017.7 1015.8 0.0
22/09:30pm 23.0 22.2 14.0 57 5.4 ESE 11 13 6 7 1017.7 1015.8 0.0
22/09:00pm 23.5 23.0 13.7 54 5.8 ESE 9 13 5 7 1017.5 1015.5 0.0
22/08:30pm 22.9 22.6 12.8 53 5.9 E 6 7 3 4 1017.2 1015.2 0.0
22/08:00pm 24.2 23.7 12.8 49 6.7 E 7 9 4 5 1016.8 1014.8 0.0
22/07:30pm 25.0 24.1 12.6 46 7.3 ESE 9 11 5 6 1016.3 1014.4 0.0
22/07:00pm 25.8 24.8 12.3 43 7.9 ESE 9 13 5 7 1015.9 1014.0 0.0
22/06:30pm 26.7 25.6 12.0 40 8.6 E 9 11 5 6 1015.5 1013.5 0.0
22/06:00pm 27.8 25.6 10.9 35 9.8 E 13 15 7 8 1015.1 1013.1 0.0
22/05:30pm 28.3 25.6 10.5 33 10.2 SE 15 17 8 9 1014.8 1012.8 0.0
22/05:00pm 28.7 26.3 9.9 31 10.7 SE 13 15 7 8 1014.6 1012.6 0.0
22/04:30pm 29.0 26.1 9.7 30 11.0 E 15 19 8 10 1014.5 1012.5 0.0
22/04:00pm 29.2 27.2 10.3 31 10.9 E 11 17 6 9 1014.3 1012.3 0.0
22/03:30pm 29.2 26.9 10.3 31 10.9 E 13 20 7 11 1014.4 1012.4 0.0
22/03:00pm 29.3 27.6 9.9 30 11.1 ESE 9 17 5 9 1014.5 1012.5 0.0
22/02:30pm 29.6 27.1 9.7 29 11.4 E 13 24 7 13 1014.7 1012.7 0.0
22/02:00pm 28.6 25.9 8.8 29 11.1 E 13 20 7 11 1015.0 1013.0 0.0
22/01:30pm 29.4 26.0 9.0 28 11.5 ENE 17 24 9 13 1015.2 1013.2 0.0
22/01:00pm 28.0 23.8 7.3 27 11.3 E 19 26 10 14 1015.7 1013.8 0.0
22/12:30pm 28.1 23.6 6.8 26 11.5 E 20 30 11 16 1016.0 1014.1 0.0
22/12:00pm 28.2 23.9 6.9 26 11.5 ESE 19 28 10 15 1016.3 1014.4 0.0
22/11:30am 26.9 21.5 6.3 27 11.0 E 24 33 13 18 1016.7 1014.7 0.0
22/11:00am 26.2 20.8 6.3 28 10.6 ESE 24 35 13 19 1017.2 1015.2 0.0
22/10:30am 25.6 19.8 8.1 33 9.5 ESE 28 41 15 22 1017.7 1015.8 0.0
22/10:00am 25.0 19.7 8.5 35 9.0 E 26 37 14 20 1017.7 1015.8 0.0
22/09:30am 24.3 18.9 9.5 39 8.2 E 28 43 15 23 1017.7 1015.8 0.0
22/09:00am 23.0 19.7 10.8 46 6.9 E 19 30 10 16 1017.7 1015.8 0.0
22/08:30am 21.2 18.6 12.1 56 5.2 E 17 20 9 11 1017.6 1015.6 0.0
22/08:00am 18.9 16.9 11.5 62 4.1 E 13 17 7 9 1017.3 1015.3 0.0
22/07:30am 17.5 15.8 11.1 66 3.5 ESE 11 13 6 7 1016.9 1014.9 0.0
22/07:00am 17.0 15.1 10.6 66 3.5 ESE 11 13 6 7 1016.8 1014.8 0.0
22/06:30am 17.6 15.4 10.7 64 3.8 E 13 17 7 9 1016.5 1014.5 0.0
22/06:00am 17.7 15.1 10.6 63 3.9 E 15 19 8 10 1016.2 1014.3 0.0
22/05:30am 18.0 15.6 10.1 60 4.3 E 13 17 7 9 1016.3 1014.4 0.0
22/05:00am 18.2 14.9 8.2 52 5.2 E 15 17 8 9 1016.3 1014.4 0.0
22/04:30am 18.1 14.7 5.7 44 6.2 E 13 15 7 8 1016.2 1014.3 0.0
22/04:00am 18.1 14.6 5.3 43 6.3 E 13 15 7 8 1016.3 1014.4 0.0
22/03:30am 18.2 14.8 5.8 44 6.2 E 13 15 7 8 1016.3 1014.4 0.0
22/03:00am 18.8 15.3 5.6 42 6.6 E 13 15 7 8 1016.5 1014.5 0.0
22/02:30am 19.1 16.1 5.9 42 6.6 E 11 13 6 7 1016.7 1014.7 0.0
22/02:00am 19.0 16.6 7.1 46 6.1 ENE 9 13 5 7 1017.0 1015.0 0.0
22/01:30am 19.7 16.6 7.1 44 6.5 E 13 15 7 8 1017.0 1015.0 0.0
22/01:00am 20.1 17.0 7.1 43 6.7 E 13 17 7 9 1017.1 1015.1 0.0
22/12:30am 20.3 17.2 7.3 43 6.8 E 13 17 7 9 1017.0 1015.0 0.0
22/12:00am 20.3 17.7 7.7 44 6.6 E 11 15 6 8 1017.2 1015.2 0.0
 
Date/Time
CST
Temp
°C
App
Temp
°C
Dew
Point
°C
Rel
Hum
%
Delta-T
°C
Wind Press
QNH
hPa
Press
MSL
hPa
Rain since
9am
mm
Dir  Spd
km/h
Gust
km/h
Spd
kts
Gust
kts
21/11:30pm 20.1 17.6 8.4 47 6.2 ESE 11 13 6 7 1017.3 1015.3 0.0
21/11:00pm 20.6 17.9 8.9 47 6.3 ESE 13 15 7 8 1017.5 1015.5 0.0
21/10:30pm 21.3 19.1 9.2 46 6.6 ESE 11 15 6 8 1017.4 1015.4 0.0
21/10:00pm 21.8 19.2 9.3 45 6.8 ESE 13 17 7 9 1017.4 1015.4 0.0
21/09:30pm 22.1 19.7 9.9 46 6.7 ESE 13 17 7 9 1017.3 1015.3 0.0
21/09:00pm 22.4 20.5 10.5 47 6.7 ESE 11 13 6 7 1017.1 1015.1 0.0
21/08:30pm 22.9 20.9 10.3 45 7.0 ESE 11 13 6 7 1016.8 1014.8 0.0
21/08:00pm 23.5 21.9 10.2 43 7.4 ESE 9 11 5 6 1016.6 1014.6 0.0
21/07:30pm 24.1 22.4 10.0 41 7.9 ESE 9 11 5 6 1016.1 1014.2 0.0
21/07:00pm 24.9 22.9 10.0 39 8.4 SE 11 15 6 8 1015.8 1013.9 0.0
21/06:30pm 25.7 23.3 9.9 37 8.9 ESE 13 17 7 9 1015.4 1013.4 0.0
21/06:00pm 26.8 24.0 10.1 35 9.5 SE 15 20 8 11 1015.0 1013.0 0.0
21/05:30pm 27.6 24.1 10.3 34 9.9 SE 19 24 10 13 1014.7 1012.7 0.0
21/05:00pm 28.5 25.9 10.7 33 10.3 SE 15 24 8 13 1014.4 1012.4 0.0
21/04:30pm 28.6 25.1 10.8 33 10.3 ESE 20 30 11 16 1014.2 1012.2 0.0
21/04:00pm 28.3 24.7 10.5 33 10.2 ESE 20 28 11 15 1014.2 1012.2 0.0
21/03:30pm 28.9 24.9 10.6 32 10.6 ESE 22 32 12 17 1014.1 1012.1 0.0
21/03:00pm 28.6 24.8 9.8 31 10.7 SE 20 30 11 16 1014.2 1012.2 0.0
21/02:30pm 28.4 23.8 9.6 31 10.7 SE 24 32 13 17 1014.4 1012.4 0.0
21/02:00pm 28.5 24.0 10.2 32 10.5 ESE 24 37 13 20 1014.7 1012.7 0.0
21/01:30pm 28.0 23.5 10.2 33 10.2 ESE 24 35 13 19 1015.1 1013.1 0.0
21/01:00pm 27.6 23.3 10.8 35 9.7 ESE 24 35 13 19 1015.6 1013.7 0.0
21/12:30pm 27.4 23.4 10.6 35 9.6 ESE 22 30 12 16 1016.0 1014.1 0.0
21/12:00pm 26.9 22.4 10.2 35 9.5 ESE 24 35 13 19 1016.6 1014.6 0.0
21/11:30am 26.2 21.4 10.4 37 9.0 E 26 37 14 20 1017.0 1015.0 0.0
21/11:00am 25.9 20.3 10.1 37 8.9 E 30 43 16 23 1017.2 1015.2 0.0
21/10:30am 25.2 19.4 9.5 37 8.7 E 30 46 16 25 1017.3 1015.3 0.0
21/10:00am 24.7 20.1 10.9 42 7.9 ESE 26 33 14 18 1017.5 1015.5 0.0
21/09:30am 23.7 18.8 11.4 46 7.0 ESE 28 37 15 20 1017.6 1015.6 0.0
21/09:00am 22.6 17.9 12.0 51 6.1 E 28 35 15 19 1017.5 1015.5 0.0
21/08:30am 21.4 18.6 13.3 60 4.7 ESE 20 32 11 17 1017.4 1015.4 0.0
21/08:00am 20.0 17.7 13.0 64 4.0 ESE 17 24 9 13 1017.2 1015.2 0.0
21/07:30am 19.2 17.3 11.7 62 4.2 ESE 13 17 7 9 1016.8 1014.8 0.0
21/07:00am 18.8 16.3 10.9 60 4.4 ESE 15 17 8 9 1016.7 1014.7 0.0
21/06:30am 18.6 16.7 10.4 59 4.5 ESE 11 15 6 8 1016.5 1014.5 0.0
21/06:00am 18.6 16.1 9.7 56 4.8 ESE 13 17 7 9 1016.0 1014.1 0.0
21/05:30am 19.2 15.9 9.4 53 5.3 ESE 17 20 9 11 1015.8 1013.9 0.0
21/05:00am 19.5 16.8 9.1 51 5.6 ESE 13 15 7 8 1015.7 1013.8 0.0
21/04:30am 19.7 17.4 9.0 50 5.7 ESE 11 13 6 7 1015.7 1013.8 0.0
21/04:00am 19.9 17.6 8.9 49 5.9 ESE 11 11 6 6 1015.7 1013.8 0.0
21/03:30am 20.3 18.4 8.9 48 6.1 ESE 9 11 5 6 1015.7 1013.8 0.0
21/03:00am 20.8 18.8 8.8 46 6.5 ESE 9 11 5 6 1015.7 1013.8 0.0
21/02:30am 21.6 19.2 8.8 44 6.9 ESE 11 15 6 8 1015.7 1013.8 0.0
21/02:00am 22.2 19.1 9.0 43 7.2 ESE 15 17 8 9 1015.9 1014.0 0.0
21/01:30am 22.8 19.4 9.2 42 7.4 ESE 17 22 9 12 1016.1 1014.2 0.0
21/01:00am 23.2 19.8 9.2 41 7.7 SE 17 22 9 12 1016.5 1014.5 0.0
21/12:30am 23.5 20.2 9.5 41 7.7 SE 17 22 9 12 1016.7 1014.7 0.0
21/12:00am 23.7 20.9 10.0 42 7.6 SE 15 22 8 12 1016.8 1014.8 0.0
 
Date/Time
CST
Temp
°C
App
Temp
°C
Dew
Point
°C
Rel
Hum
%
Delta-T
°C
Wind Press
QNH
hPa
Press
MSL
hPa
Rain since
9am
mm
Dir  Spd
km/h
Gust
km/h
Spd
kts
Gust
kts
20/11:30pm 23.9 21.2 10.2 42 7.7 SE 15 24 8 13 1016.9 1014.9 0.0
20/11:00pm 24.2 21.5 10.5 42 7.7 SE 15 19 8 10 1017.1 1015.1 0.0
20/10:30pm 24.5 21.5 10.8 42 7.8 ESE 17 22 9 12 1017.1 1015.1 0.0
20/10:00pm 24.6 21.8 11.2 43 7.7 ESE 17 24 9 13 1017.1 1015.1 0.0
20/09:30pm 24.9 21.8 11.5 43 7.7 ESE 19 26 10 14 1016.8 1014.8 0.0
20/09:00pm 25.1 22.4 11.6 42 7.8 ESE 17 24 9 13 1016.6 1014.6 0.0
20/08:30pm 25.2 22.6 12.1 44 7.6 ESE 17 22 9 12 1016.1 1014.2 0.0
20/08:00pm 25.4 23.7 12.3 44 7.7 ESE 13 17 7 9 1015.9 1014.0 0.0
20/07:30pm 25.6 23.4 12.1 43 7.9 ESE 15 20 8 11 1015.6 1013.7 0.0
20/07:00pm 25.9 24.1 12.0 42 8.1 ESE 13 15 7 8 1015.3 1013.3 0.0
20/06:30pm 26.3 24.0 11.6 40 8.5 ESE 15 20 8 11 1015.1 1013.1 0.0
20/06:00pm 26.7 23.9 11.2 38 9.0 ESE 17 24 9 13 1014.8 1012.8 0.0
20/05:30pm 27.6 24.1 10.8 35 9.7 ESE 20 28 11 15 1014.6 1012.6 0.0
20/05:00pm 28.2 25.3 10.9 34 10.0 E 17 24 9 13 1014.3 1012.3 0.0
20/04:30pm 28.2 24.7 10.9 34 10.0 ESE 20 30 11 16 1014.2 1012.2 0.0
20/04:00pm 28.2 24.9 10.9 34 10.0 ESE 19 28 10 15 1014.1 1012.1 0.0
20/03:30pm 28.8 25.6 11.4 34 10.2 ESE 19 30 10 16 1014.0 1012.0 0.0
20/03:00pm 28.4 24.9 11.0 34 10.1 ESE 20 33 11 18 1013.9 1011.9 0.0
20/02:30pm 28.6 24.5 11.6 34 10.0 ESE 24 33 13 18 1014.2 1012.2 0.0
20/02:00pm 28.4 25.1 11.5 35 9.9 E 20 30 11 16 1014.6 1012.6 0.0
20/01:30pm 28.2 24.2 11.7 36 9.7 E 24 37 13 20 1015.0 1013.0 0.0
20/01:00pm 28.0 24.2 12.4 38 9.2 ESE 24 32 13 17 1015.3 1013.3 0.0
20/12:30pm 27.6 23.7 13.2 41 8.6 E 26 37 14 20 1015.7 1013.8 0.0
20/12:00pm 26.8 22.3 12.5 41 8.4 ESE 28 37 15 20 1015.9 1014.0 0.0
20/11:30am 26.1 21.3 11.5 40 8.5 E 28 39 15 21 1016.3 1014.4 0.0
20/11:00am 25.7 20.1 10.3 38 8.7 E 30 43 16 23 1016.6 1014.6 0.0
20/10:30am 25.2 22.1 13.4 48 7.0 ESE 22 32 12 17 1016.9 1014.9 0.0
20/10:00am 24.0 20.5 13.5 52 6.2 ESE 24 33 13 18 1017.0 1015.0 0.0
20/09:30am 23.1 20.8 14.1 57 5.4 ESE 19 28 10 15 1017.0 1015.0 0.0
20/09:00am 21.6 20.1 15.2 67 3.9 SE 17 24 9 13 1016.9 1014.9 0.0
20/08:30am 20.4 19.6 15.2 72 3.1 ESE 13 20 7 11 1016.5 1014.5 0.0
20/08:00am 19.1 19.0 15.0 77 2.4 ESE 9 13 5 7 1016.0 1014.1 0.0

Other Formats:

Comma delimited format used in spreadsheet applications
http://www.bom.gov.au/fwo/IDD60801/IDD60801.94141.axf

JavaScript Object Notation format (JSON) in row-major order
http://www.bom.gov.au/fwo/IDD60801/IDD60801.94141.json